<?xml version="1.0" encoding="UTF-8" standalone="no" ?><gpx xmlns="http://www.topografix.com/GPX/1/1" xmlns:gpxx="http://www.garmin.com/xmlschemas/GpxExtensions/v3" xmlns:wptx1="http://www.garmin.com/xmlschemas/WaypointExtension/v1" xmlns:gpxtpx="http://www.garmin.com/xmlschemas/TrackPointExtension/v1" creator="GuideVTT.com" version="1.1" xmlns:xsi="http://www.w3.org/2001/XMLSchema-instance" xsi:schemaLocation="http://www.topografix.com/GPX/1/1 http://www.topografix.com/GPX/1/1/gpx.xsd http://www.garmin.com/xmlschemas/GpxExtensions/v3 http://www8.garmin.com/xmlschemas/GpxExtensionsv3.xsd http://www.garmin.com/xmlschemas/WaypointExtension/v1 http://www8.garmin.com/xmlschemas/WaypointExtensionv1.xsd http://www.garmin.com/xmlschemas/TrackPointExtension/v1 http://www.garmin.com/xmlschemas/TrackPointExtensionv1.xsd">
<metadata><link href="http://www.garmin.com"><text>Garmin International</text></link><time>2013-06-22T15:13:50Z</time></metadata>
<trk><name>azaa.gpx</name><extensions><gpxx:TrackExtension><gpxx:DisplayColor>Cyan</gpxx:DisplayColor></gpxx:TrackExtension></extensions><trkseg>
<trkpt lat="-0.006064" lon="318.7"><ele>0</ele><time>49.0-1238327439-5.21T00:0:0Z</time></trkpt>
<trkpt lat="-0.006236" lon="319.5"><ele>0</ele><time>296.8-1238327453-2.17T00:0:0Z</time></trkpt>
<trkpt lat="-0.006508" lon="319.1"><ele>0</ele><time>273.1-1238327463-4.28T00:0:0Z</time></trkpt>
<trkpt lat="-0.006781" lon="319.5"><ele>0</ele><time>266.3-1238327473-4.31T00:0:0Z</time></trkpt>
<trkpt lat="-0.006955" lon="319.4"><ele>0</ele><time>207.7-1238327483-5.86T00:0:0Z</time></trkpt>
<trkpt lat="-0.007163" lon="320.0"><ele>0</ele><time>205.1-1238327493-7.73T00:0:0Z</time></trkpt>
<trkpt lat="-0.007339" lon="321.2"><ele>0</ele><time>202.2-1238327503-7.37T00:0:0Z</time></trkpt>
<trkpt lat="-0.007499" lon="322.5"><ele>0</ele><time>201.1-1238327513-6.96T00:0:0Z</time></trkpt>
<trkpt lat="-0.007710" lon="323.6"><ele>0</ele><time>205.7-1238327523-7.67T00:0:0Z</time></trkpt>
<trkpt lat="-0.007989" lon="323.9"><ele>0</ele><time>215.9-1238327533-7.48T00:0:0Z</time></trkpt>
<trkpt lat="-0.008401" lon="326.2"><ele>0</ele><time>247.8-1238327543-7.00T00:0:0Z</time></trkpt>
<trkpt lat="-0.008648" lon="325.8"><ele>0</ele><time>268.8-1238327553-3.89T00:0:0Z</time></trkpt>
<trkpt lat="-0.008825" lon="324.1"><ele>0</ele><time>287.6-1238327698-0.20T00:0:0Z</time></trkpt>
<trkpt lat="-0.008981" lon="329.8"><ele>0</ele><time>305.5-1238328429-0.04T00:0:0Z</time></trkpt>
<trkpt lat="-0.009536" lon="328.4"><ele>0</ele><time>272.6-1238328439-8.74T00:0:0Z</time></trkpt>
<trkpt lat="-0.010216" lon="328.9"><ele>0</ele><time>274.2-1238328449-10.72T00:0:0Z</time></trkpt>
<trkpt lat="-0.010928" lon="327.9"><ele>0</ele><time>279.1-1238328459-11.34T00:0:0Z</time></trkpt>
<trkpt lat="-0.011546" lon="327.0"><ele>0</ele><time>278.1-1238328469-9.81T00:0:0Z</time></trkpt>
<trkpt lat="-0.012123" lon="327.8"><ele>0</ele><time>279.0-1238328479-9.19T00:0:0Z</time></trkpt>
<trkpt lat="-0.012673" lon="328.2"><ele>0</ele><time>270.5-1238328489-8.66T00:0:0Z</time></trkpt>
<trkpt lat="-0.013111" lon="328.6"><ele>0</ele><time>239.0-1238328499-8.04T00:0:0Z</time></trkpt>
<trkpt lat="-0.013339" lon="327.4"><ele>0</ele><time>201.9-1238328509-9.60T00:0:0Z</time></trkpt>
<trkpt lat="-0.013611" lon="328.6"><ele>0</ele><time>203.6-1238328519-10.68T00:0:0Z</time></trkpt>
<trkpt lat="-0.013763" lon="329.4"><ele>0</ele><time>194.6-1238328529-9.43T00:0:0Z</time></trkpt>
<trkpt lat="-0.013852" lon="329.6"><ele>0</ele><time>189.3-1238328539-8.74T00:0:0Z</time></trkpt>
<trkpt lat="-0.013929" lon="331.2"><ele>0</ele><time>187.9-1238328549-8.73T00:0:0Z</time></trkpt>
<trkpt lat="-0.014037" lon="330.3"><ele>0</ele><time>190.3-1238328559-9.57T00:0:0Z</time></trkpt>
<trkpt lat="-0.014233" lon="331.1"><ele>0</ele><time>195.9-1238328569-11.22T00:0:0Z</time></trkpt>
<trkpt lat="-0.014480" lon="331.7"><ele>0</ele><time>200.7-1238328579-10.96T00:0:0Z</time></trkpt>
<trkpt lat="-0.014910" lon="330.9"><ele>0</ele><time>209.7-1238328589-13.66T00:0:0Z</time></trkpt>
<trkpt lat="-0.015535" lon="331.9"><ele>0</ele><time>223.2-1238328599-14.34T00:0:0Z</time></trkpt>
<trkpt lat="-0.015943" lon="332.6"><ele>0</ele><time>224.6-1238328609-9.15T00:0:0Z</time></trkpt>
<trkpt lat="-0.016088" lon="330.9"><ele>0</ele><time>229.6-1238328619-2.99T00:0:0Z</time></trkpt>
<trkpt lat="-0.016218" lon="330.1"><ele>0</ele><time>199.9-1238328629-5.99T00:0:0Z</time></trkpt>
<trkpt lat="-0.016427" lon="331.3"><ele>0</ele><time>199.7-1238328639-9.78T00:0:0Z</time></trkpt>
<trkpt lat="-0.016605" lon="331.3"><ele>0</ele><time>195.8-1238328649-10.26T00:0:0Z</time></trkpt>
<trkpt lat="-0.016779" lon="330.3"><ele>0</ele><time>193.6-1238328659-11.69T00:0:0Z</time></trkpt>
<trkpt lat="-0.016936" lon="328.4"><ele>0</ele><time>190.7-1238328669-13.20T00:0:0Z</time></trkpt>
<trkpt lat="-0.017047" lon="328.0"><ele>0</ele><time>187.7-1238328679-13.08T00:0:0Z</time></trkpt>
<trkpt lat="-0.017222" lon="329.0"><ele>0</ele><time>192.9-1238328689-12.29T00:0:0Z</time></trkpt>
<trkpt lat="-0.017468" lon="330.4"><ele>0</ele><time>200.0-1238328699-11.32T00:0:0Z</time></trkpt>
<trkpt lat="-0.017739" lon="330.6"><ele>0</ele><time>201.8-1238328709-11.48T00:0:0Z</time></trkpt>
<trkpt lat="-0.018070" lon="332.1"><ele>0</ele><time>202.8-1238328719-13.45T00:0:0Z</time></trkpt>
<trkpt lat="-0.018413" lon="331.0"><ele>0</ele><time>202.2-1238328729-14.29T00:0:0Z</time></trkpt>
<trkpt lat="-0.018779" lon="331.1"><ele>0</ele><time>202.4-1238328739-15.15T00:0:0Z</time></trkpt>
<trkpt lat="-0.018888" lon="330.3"><ele>0</ele><time>193.4-1238328749-7.33T00:0:0Z</time></trkpt>
<trkpt lat="-0.018984" lon="331.0"><ele>0</ele><time>204.5-1238328760-3.30T00:0:0Z</time></trkpt>
<trkpt lat="-0.019079" lon="332.5"><ele>0</ele><time>190.2-1238328770-8.51T00:0:0Z</time></trkpt>
<trkpt lat="-0.019131" lon="332.1"><ele>0</ele><time>185.1-1238328780-9.24T00:0:0Z</time></trkpt>
<trkpt lat="-0.019178" lon="332.8"><ele>0</ele><time>184.4-1238328790-9.62T00:0:0Z</time></trkpt>
<trkpt lat="-0.019253" lon="333.3"><ele>0</ele><time>186.1-1238328800-11.09T00:0:0Z</time></trkpt>
<trkpt lat="-0.019346" lon="334.5"><ele>0</ele><time>187.6-1238328810-11.05T00:0:0Z</time></trkpt>
<trkpt lat="-0.019403" lon="334.2"><ele>0</ele><time>184.4-1238328820-11.72T00:0:0Z</time></trkpt>
<trkpt lat="-0.019438" lon="334.9"><ele>0</ele><time>182.5-1238328830-12.70T00:0:0Z</time></trkpt>
<trkpt lat="-0.019447" lon="335.2"><ele>0</ele><time>180.6-1238328840-12.80T00:0:0Z</time></trkpt>
<trkpt lat="-0.019220" lon="334.3"><ele>0</ele><time>165.4-1238328850-14.17T00:0:0Z</time></trkpt>
<trkpt lat="-0.019105" lon="333.2"><ele>0</ele><time>172.8-1238328860-14.35T00:0:0Z</time></trkpt>
<trkpt lat="-0.018863" lon="332.9"><ele>0</ele><time>164.5-1238328870-14.17T00:0:0Z</time></trkpt>
<trkpt lat="-0.018660" lon="333.1"><ele>0</ele><time>167.0-1238328880-14.22T00:0:0Z</time></trkpt>
<trkpt lat="-0.018559" lon="333.7"><ele>0</ele><time>173.7-1238328890-14.27T00:0:0Z</time></trkpt>
<trkpt lat="-0.018529" lon="334.7"><ele>0</ele><time>177.8-1238328900-12.88T00:0:0Z</time></trkpt>
<trkpt lat="-0.018487" lon="334.6"><ele>0</ele><time>176.8-1238328910-11.47T00:0:0Z</time></trkpt>
<trkpt lat="-0.018384" lon="335.3"><ele>0</ele><time>172.0-1238328920-11.78T00:0:0Z</time></trkpt>
<trkpt lat="-0.018289" lon="335.8"><ele>0</ele><time>173.4-1238328930-12.97T00:0:0Z</time></trkpt>
<trkpt lat="-0.018394" lon="336.2"><ele>0</ele><time>186.7-1238328940-14.13T00:0:0Z</time></trkpt>
<trkpt lat="-0.018533" lon="337.6"><ele>0</ele><time>188.6-1238328950-14.63T00:0:0Z</time></trkpt>
<trkpt lat="-0.018697" lon="337.7"><ele>0</ele><time>309.4-1238328960-3.34T00:0:0Z</time></trkpt>
<trkpt lat="-0.018803" lon="335.8"><ele>0</ele><time>355.1-1238328970-19.68T00:0:0Z</time></trkpt>
<trkpt lat="-0.019777" lon="331.7"><ele>0</ele><time>318.9-1238328980-23.31T00:0:0Z</time></trkpt>
<trkpt lat="-0.020989" lon="327.4"><ele>0</ele><time>304.8-1238328990-23.21T00:0:0Z</time></trkpt>
<trkpt lat="-0.020986" lon="321.9"><ele>0</ele><time>0.1-1238329000-18.64T00:0:0Z</time></trkpt>
<trkpt lat="-0.021421" lon="316.5"><ele>0</ele><time>325.4-1238329010-12.05T00:0:0Z</time></trkpt>
<trkpt lat="-0.021640" lon="311.3"><ele>0</ele><time>197.7-1238329020-11.32T00:0:0Z</time></trkpt>
<trkpt lat="-0.022727" lon="307.7"><ele>0</ele><time>259.3-1238329030-17.39T00:0:0Z</time></trkpt>
<trkpt lat="-0.023036" lon="302.8"><ele>0</ele><time>214.8-1238329040-8.54T00:0:0Z</time></trkpt>
<trkpt lat="-0.023122" lon="299.1"><ele>0</ele><time>207.4-1238329051-2.67T00:0:0Z</time></trkpt>
<trkpt lat="-0.023317" lon="293.1"><ele>0</ele><time>345.7-1238329061-12.42T00:0:0Z</time></trkpt>
<trkpt lat="-0.023406" lon="288.8"><ele>0</ele><time>350.1-1238329071-8.19T00:0:0Z</time></trkpt>
<trkpt lat="-0.023788" lon="283.7"><ele>0</ele><time>204.3-1238329081-14.58T00:0:0Z</time></trkpt>
<trkpt lat="-0.024010" lon="276.8"><ele>0</ele><time>190.1-1238329091-20.00T00:0:0Z</time></trkpt>
<trkpt lat="-0.024525" lon="265.8"><ele>0</ele><time>210.7-1238329101-15.86T00:0:0Z</time></trkpt>
<trkpt lat="-0.025555" lon="252.4"><ele>0</ele><time>261.8-1238329111-16.36T00:0:0Z</time></trkpt>
<trkpt lat="-0.026455" lon="246.5"><ele>0</ele><time>306.8-1238329121-17.70T00:0:0Z</time></trkpt>
<trkpt lat="-0.027048" lon="242.0"><ele>0</ele><time>323.1-1238329131-15.54T00:0:0Z</time></trkpt>
<trkpt lat="-0.027964" lon="239.9"><ele>0</ele><time>283.1-1238329141-14.79T00:0:0Z</time></trkpt>
<trkpt lat="-0.028918" lon="235.4"><ele>0</ele><time>264.9-1238329151-15.07T00:0:0Z</time></trkpt>
<trkpt lat="-0.029617" lon="233.3"><ele>0</ele><time>256.4-1238329161-11.31T00:0:0Z</time></trkpt>
<trkpt lat="-0.029527" lon="232.5"><ele>0</ele><time>169.2-1238329171-7.50T00:0:0Z</time></trkpt>
<trkpt lat="-0.029538" lon="231.7"><ele>0</ele><time>181.0-1238329181-9.39T00:0:0Z</time></trkpt>
<trkpt lat="-0.029532" lon="231.6"><ele>0</ele><time>179.5-1238329191-9.73T00:0:0Z</time></trkpt>
<trkpt lat="-0.029448" lon="230.8"><ele>0</ele><time>172.8-1238329201-10.49T00:0:0Z</time></trkpt>
<trkpt lat="-0.029344" lon="230.4"><ele>0</ele><time>171.8-1238329211-11.52T00:0:0Z</time></trkpt>
<trkpt lat="-0.029683" lon="230.1"><ele>0</ele><time>205.8-1238329221-12.26T00:0:0Z</time></trkpt>
<trkpt lat="-0.030106" lon="229.8"><ele>0</ele><time>213.5-1238329231-12.07T00:0:0Z</time></trkpt>
<trkpt lat="-0.030608" lon="230.7"><ele>0</ele><time>242.3-1238329241-8.91T00:0:0Z</time></trkpt>
<trkpt lat="-0.031280" lon="231.7"><ele>0</ele><time>271.5-1238329252-9.62T00:0:0Z</time></trkpt>
<trkpt lat="-0.031814" lon="232.9"><ele>0</ele><time>267.9-1238329262-8.40T00:0:0Z</time></trkpt>
<trkpt lat="-0.032362" lon="233.5"><ele>0</ele><time>269.4-1238329272-8.63T00:0:0Z</time></trkpt>
<trkpt lat="-0.032972" lon="234.9"><ele>0</ele><time>269.7-1238329282-9.58T00:0:0Z</time></trkpt>
<trkpt lat="-0.033597" lon="235.9"><ele>0</ele><time>269.7-1238329292-9.84T00:0:0Z</time></trkpt>
<trkpt lat="-0.034225" lon="237.2"><ele>0</ele><time>270.4-1238329302-9.89T00:0:0Z</time></trkpt>
<trkpt lat="-0.034886" lon="237.7"><ele>0</ele><time>270.4-1238329312-10.40T00:0:0Z</time></trkpt>
<trkpt lat="-0.035572" lon="238.1"><ele>0</ele><time>270.0-1238329322-10.79T00:0:0Z</time></trkpt>
<trkpt lat="-0.036243" lon="238.6"><ele>0</ele><time>269.6-1238329332-10.56T00:0:0Z</time></trkpt>
<trkpt lat="-0.036882" lon="239.6"><ele>0</ele><time>270.0-1238329342-10.05T00:0:0Z</time></trkpt>
<trkpt lat="-0.037435" lon="240.8"><ele>0</ele><time>270.9-1238329352-8.70T00:0:0Z</time></trkpt>
<trkpt lat="-0.037878" lon="243.1"><ele>0</ele><time>271.2-1238329362-6.97T00:0:0Z</time></trkpt>
<trkpt lat="-0.038344" lon="244.9"><ele>0</ele><time>271.4-1238329372-7.34T00:0:0Z</time></trkpt>
<trkpt lat="-0.038803" lon="246.9"><ele>0</ele><time>269.8-1238329382-7.23T00:0:0Z</time></trkpt>
<trkpt lat="-0.039273" lon="248.9"><ele>0</ele><time>269.4-1238329392-7.39T00:0:0Z</time></trkpt>
<trkpt lat="-0.039787" lon="250.1"><ele>0</ele><time>267.2-1238329402-8.09T00:0:0Z</time></trkpt>
<trkpt lat="-0.040348" lon="250.9"><ele>0</ele><time>257.4-1238329412-9.05T00:0:0Z</time></trkpt>
<trkpt lat="-0.040466" lon="251.8"><ele>0</ele><time>191.1-1238329422-9.59T00:0:0Z</time></trkpt>
<trkpt lat="-0.040602" lon="252.2"><ele>0</ele><time>192.0-1238329432-10.26T00:0:0Z</time></trkpt>
<trkpt lat="-0.040640" lon="252.5"><ele>0</ele><time>182.9-1238329442-12.05T00:0:0Z</time></trkpt>
<trkpt lat="-0.041209" lon="252.7"><ele>0</ele><time>225.5-1238329452-12.54T00:0:0Z</time></trkpt>
<trkpt lat="-0.041869" lon="253.2"><ele>0</ele><time>247.2-1238329462-11.25T00:0:0Z</time></trkpt>
<trkpt lat="-0.042282" lon="253.6"><ele>0</ele><time>212.4-1238329472-12.11T00:0:0Z</time></trkpt>
<trkpt lat="-0.043000" lon="254.3"><ele>0</ele><time>261.6-1238329482-11.42T00:0:0Z</time></trkpt>
<trkpt lat="-0.043402" lon="254.6"><ele>0</ele><time>302.7-1238329492-7.52T00:0:0Z</time></trkpt>
<trkpt lat="-0.043894" lon="255.5"><ele>0</ele><time>296.1-1238329502-8.61T00:0:0Z</time></trkpt>
<trkpt lat="-0.044253" lon="256.8"><ele>0</ele><time>314.8-1238329512-7.97T00:0:0Z</time></trkpt>
<trkpt lat="-0.044295" lon="258.2"><ele>0</ele><time>355.5-1238329522-8.21T00:0:0Z</time></trkpt>
<trkpt lat="-0.044234" lon="257.9"><ele>0</ele><time>6.2-1238329532-8.92T00:0:0Z</time></trkpt>
<trkpt lat="-0.044149" lon="258.0"><ele>0</ele><time>7.6-1238329542-10.17T00:0:0Z</time></trkpt>
<trkpt lat="-0.044072" lon="258.3"><ele>0</ele><time>6.2-1238329552-11.21T00:0:0Z</time></trkpt>
<trkpt lat="-0.044021" lon="258.8"><ele>0</ele><time>4.0-1238329562-11.42T00:0:0Z</time></trkpt>
<trkpt lat="-0.044036" lon="260.4"><ele>0</ele><time>358.8-1238329572-11.22T00:0:0Z</time></trkpt>
<trkpt lat="-0.044016" lon="260.7"><ele>0</ele><time>1.5-1238329582-11.75T00:0:0Z</time></trkpt>
<trkpt lat="-0.043875" lon="260.3"><ele>0</ele><time>9.2-1238329592-13.93T00:0:0Z</time></trkpt>
<trkpt lat="-0.043727" lon="259.8"><ele>0</ele><time>10.5-1238329602-12.77T00:0:0Z</time></trkpt>
<trkpt lat="-0.043587" lon="260.4"><ele>0</ele><time>10.0-1238329612-12.70T00:0:0Z</time></trkpt>
<trkpt lat="-0.043448" lon="259.5"><ele>0</ele><time>11.0-1238329622-11.53T00:0:0Z</time></trkpt>
<trkpt lat="-0.043122" lon="258.4"><ele>0</ele><time>23.4-1238329632-12.90T00:0:0Z</time></trkpt>
<trkpt lat="-0.042621" lon="257.6"><ele>0</ele><time>31.5-1238329642-15.06T00:0:0Z</time></trkpt>
<trkpt lat="-0.042097" lon="256.1"><ele>0</ele><time>32.4-1238329652-15.37T00:0:0Z</time></trkpt>
<trkpt lat="-0.041441" lon="255.5"><ele>0</ele><time>37.4-1238329662-16.99T00:0:0Z</time></trkpt>
<trkpt lat="-0.040352" lon="253.7"><ele>0</ele><time>64.4-1238329672-19.00T00:0:0Z</time></trkpt>
<trkpt lat="-0.039735" lon="252.3"><ele>0</ele><time>33.8-1238329682-17.43T00:0:0Z</time></trkpt>
<trkpt lat="-0.039170" lon="251.4"><ele>0</ele><time>38.9-1238329692-14.16T00:0:0Z</time></trkpt>
<trkpt lat="-0.038740" lon="251.4"><ele>0</ele><time>33.2-1238329702-12.34T00:0:0Z</time></trkpt>
<trkpt lat="-0.038365" lon="251.4"><ele>0</ele><time>30.9-1238329712-11.51T00:0:0Z</time></trkpt>
<trkpt lat="-0.037956" lon="251.2"><ele>0</ele><time>30.7-1238329722-12.57T00:0:0Z</time></trkpt>
<trkpt lat="-0.037471" lon="250.7"><ele>0</ele><time>31.3-1238329732-14.70T00:0:0Z</time></trkpt>
<trkpt lat="-0.036923" lon="249.8"><ele>0</ele><time>31.6-1238329742-16.46T00:0:0Z</time></trkpt>
<trkpt lat="-0.036327" lon="247.9"><ele>0</ele><time>31.8-1238329752-17.81T00:0:0Z</time></trkpt>
<trkpt lat="-0.035722" lon="246.3"><ele>0</ele><time>31.0-1238329762-18.45T00:0:0Z</time></trkpt>
<trkpt lat="-0.035308" lon="245.8"><ele>0</ele><time>22.6-1238329772-16.97T00:0:0Z</time></trkpt>
<trkpt lat="-0.035130" lon="244.7"><ele>0</ele><time>10.9-1238329782-14.81T00:0:0Z</time></trkpt>
<trkpt lat="-0.034971" lon="243.3"><ele>0</ele><time>10.0-1238329792-14.48T00:0:0Z</time></trkpt>
<trkpt lat="-0.034811" lon="242.8"><ele>0</ele><time>10.4-1238329802-13.96T00:0:0Z</time></trkpt>
<trkpt lat="-0.034653" lon="242.5"><ele>0</ele><time>10.1-1238329812-14.18T00:0:0Z</time></trkpt>
<trkpt lat="-0.034527" lon="242.7"><ele>0</ele><time>8.3-1238329822-13.78T00:0:0Z</time></trkpt>
<trkpt lat="-0.034690" lon="241.2"><ele>0</ele><time>351.2-1238329832-16.70T00:0:0Z</time></trkpt>
<trkpt lat="-0.034614" lon="240.2"><ele>0</ele><time>3.9-1238329842-17.76T00:0:0Z</time></trkpt>
<trkpt lat="-0.034665" lon="239.8"><ele>0</ele><time>355.2-1238329852-9.69T00:0:0Z</time></trkpt>
<trkpt lat="-0.035103" lon="239.7"><ele>0</ele><time>282.3-1238329862-7.05T00:0:0Z</time></trkpt>
<trkpt lat="-0.035576" lon="240.6"><ele>0</ele><time>283.4-1238329872-7.64T00:0:0Z</time></trkpt>
<trkpt lat="-0.036072" lon="240.4"><ele>0</ele><time>286.4-1238329882-8.13T00:0:0Z</time></trkpt>
<trkpt lat="-0.036585" lon="240.4"><ele>0</ele><time>282.0-1238329892-8.25T00:0:0Z</time></trkpt>
<trkpt lat="-0.037105" lon="240.4"><ele>0</ele><time>279.9-1238329902-8.31T00:0:0Z</time></trkpt>
<trkpt lat="-0.037626" lon="240.4"><ele>0</ele><time>276.5-1238329912-8.25T00:0:0Z</time></trkpt>
<trkpt lat="-0.038155" lon="240.9"><ele>0</ele><time>276.0-1238329922-8.37T00:0:0Z</time></trkpt>
<trkpt lat="-0.038614" lon="242.4"><ele>0</ele><time>275.8-1238329932-7.25T00:0:0Z</time></trkpt>
<trkpt lat="-0.039039" lon="243.4"><ele>0</ele><time>279.3-1238329942-6.78T00:0:0Z</time></trkpt>
<trkpt lat="-0.039395" lon="244.9"><ele>0</ele><time>286.0-1238329952-5.82T00:0:0Z</time></trkpt>
<trkpt lat="-0.039789" lon="246.8"><ele>0</ele><time>280.5-1238329962-6.30T00:0:0Z</time></trkpt>
<trkpt lat="-0.040175" lon="248.0"><ele>0</ele><time>280.1-1238329972-6.16T00:0:0Z</time></trkpt>
<trkpt lat="-0.040554" lon="247.9"><ele>0</ele><time>277.6-1238329982-6.02T00:0:0Z</time></trkpt>
<trkpt lat="-0.040913" lon="249.3"><ele>0</ele><time>278.5-1238329992-5.71T00:0:0Z</time></trkpt>
<trkpt lat="-0.041285" lon="250.9"><ele>0</ele><time>278.2-1238330002-5.91T00:0:0Z</time></trkpt>
<trkpt lat="-0.041699" lon="251.4"><ele>0</ele><time>277.0-1238330012-6.56T00:0:0Z</time></trkpt>
<trkpt lat="-0.042126" lon="251.9"><ele>0</ele><time>279.2-1238330022-6.80T00:0:0Z</time></trkpt>
<trkpt lat="-0.042506" lon="252.7"><ele>0</ele><time>282.3-1238330032-6.11T00:0:0Z</time></trkpt>
<trkpt lat="-0.042891" lon="253.4"><ele>0</ele><time>290.4-1238330042-6.47T00:0:0Z</time></trkpt>
<trkpt lat="-0.043295" lon="254.0"><ele>0</ele><time>288.1-1238330052-6.69T00:0:0Z</time></trkpt>
<trkpt lat="-0.043760" lon="254.5"><ele>0</ele><time>280.6-1238330062-7.43T00:0:0Z</time></trkpt>
<trkpt lat="-0.044312" lon="255.1"><ele>0</ele><time>268.7-1238330072-8.68T00:0:0Z</time></trkpt>
<trkpt lat="-0.044844" lon="256.1"><ele>0</ele><time>268.9-1238330082-8.37T00:0:0Z</time></trkpt>
<trkpt lat="-0.045349" lon="256.7"><ele>0</ele><time>282.5-1238330092-8.14T00:0:0Z</time></trkpt>
<trkpt lat="-0.045807" lon="257.6"><ele>0</ele><time>283.3-1238330102-7.40T00:0:0Z</time></trkpt>
<trkpt lat="-0.046248" lon="258.2"><ele>0</ele><time>289.2-1238330112-7.34T00:0:0Z</time></trkpt>
<trkpt lat="-0.046676" lon="259.6"><ele>0</ele><time>290.1-1238330122-7.18T00:0:0Z</time></trkpt>
<trkpt lat="-0.047125" lon="260.8"><ele>0</ele><time>285.7-1238330132-7.33T00:0:0Z</time></trkpt>
<trkpt lat="-0.047566" lon="262.8"><ele>0</ele><time>284.5-1238330142-7.17T00:0:0Z</time></trkpt>
<trkpt lat="-0.048007" lon="264.2"><ele>0</ele><time>288.1-1238330152-7.30T00:0:0Z</time></trkpt>
<trkpt lat="-0.048396" lon="266.5"><ele>0</ele><time>300.3-1238330162-7.09T00:0:0Z</time></trkpt>
<trkpt lat="-0.048807" lon="267.0"><ele>0</ele><time>294.0-1238330172-7.06T00:0:0Z</time></trkpt>
<trkpt lat="-0.049252" lon="268.5"><ele>0</ele><time>282.7-1238330182-7.18T00:0:0Z</time></trkpt>
<trkpt lat="-0.049752" lon="268.8"><ele>0</ele><time>285.8-1238330192-8.17T00:0:0Z</time></trkpt>
<trkpt lat="-0.050201" lon="269.6"><ele>0</ele><time>288.1-1238330202-7.42T00:0:0Z</time></trkpt>
<trkpt lat="-0.050409" lon="273.2"><ele>0</ele><time>277.8-1238330259-0.58T00:0:0Z</time></trkpt>
<trkpt lat="-0.050779" lon="273.9"><ele>0</ele><time>285.2-1238330269-6.02T00:0:0Z</time></trkpt>
<trkpt lat="-0.051177" lon="274.1"><ele>0</ele><time>288.1-1238330279-6.59T00:0:0Z</time></trkpt>
<trkpt lat="-0.051602" lon="273.7"><ele>0</ele><time>280.8-1238330289-6.81T00:0:0Z</time></trkpt>
<trkpt lat="-0.051930" lon="274.8"><ele>0</ele><time>307.8-1238330299-6.51T00:0:0Z</time></trkpt>
<trkpt lat="-0.052128" lon="276.9"><ele>0</ele><time>317.8-1238330309-4.64T00:0:0Z</time></trkpt>
<trkpt lat="-0.052416" lon="279.0"><ele>0</ele><time>298.3-1238330319-5.13T00:0:0Z</time></trkpt>
<trkpt lat="-0.052782" lon="280.7"><ele>0</ele><time>301.0-1238330329-6.71T00:0:0Z</time></trkpt>
<trkpt lat="-0.053065" lon="281.6"><ele>0</ele><time>313.1-1238330339-6.11T00:0:0Z</time></trkpt>
<trkpt lat="-0.053324" lon="282.8"><ele>0</ele><time>313.7-1238330349-5.63T00:0:0Z</time></trkpt>
<trkpt lat="-0.053607" lon="284.4"><ele>0</ele><time>315.5-1238330359-6.35T00:0:0Z</time></trkpt>
<trkpt lat="-0.053726" lon="287.4"><ele>0</ele><time>321.4-1238330391-0.93T00:0:0Z</time></trkpt>
<trkpt lat="-0.053899" lon="287.7"><ele>0</ele><time>319.2-1238330401-4.17T00:0:0Z</time></trkpt>
<trkpt lat="-0.054072" lon="288.8"><ele>0</ele><time>321.6-1238330411-4.38T00:0:0Z</time></trkpt>
<trkpt lat="-0.054275" lon="290.2"><ele>0</ele><time>321.2-1238330421-5.09T00:0:0Z</time></trkpt>
<trkpt lat="-0.054474" lon="292.6"><ele>0</ele><time>321.3-1238330431-5.00T00:0:0Z</time></trkpt>
<trkpt lat="-0.054679" lon="294.2"><ele>0</ele><time>322.2-1238330441-5.26T00:0:0Z</time></trkpt>
<trkpt lat="-0.054930" lon="296.4"><ele>0</ele><time>306.9-1238330451-4.94T00:0:0Z</time></trkpt>
<trkpt lat="-0.055134" lon="296.9"><ele>0</ele><time>312.4-1238330461-4.33T00:0:0Z</time></trkpt>
<trkpt lat="-0.055266" lon="297.8"><ele>0</ele><time>323.7-1238330471-3.51T00:0:0Z</time></trkpt>
<trkpt lat="-0.055382" lon="299.9"><ele>0</ele><time>327.5-1238330481-3.40T00:0:0Z</time></trkpt>
<trkpt lat="-0.055495" lon="301.5"><ele>0</ele><time>329.4-1238330491-3.48T00:0:0Z</time></trkpt>
<trkpt lat="-0.055617" lon="303.5"><ele>0</ele><time>327.1-1238330501-3.54T00:0:0Z</time></trkpt>
<trkpt lat="-0.055743" lon="305.1"><ele>0</ele><time>327.0-1238330511-3.64T00:0:0Z</time></trkpt>
<trkpt lat="-0.055835" lon="306.3"><ele>0</ele><time>335.1-1238330521-3.44T00:0:0Z</time></trkpt>
<trkpt lat="-0.055930" lon="307.0"><ele>0</ele><time>337.8-1238330531-3.96T00:0:0Z</time></trkpt>
<trkpt lat="-0.056079" lon="308.4"><ele>0</ele><time>323.2-1238330541-3.91T00:0:0Z</time></trkpt>
<trkpt lat="-0.056213" lon="309.8"><ele>0</ele><time>318.0-1238330551-3.16T00:0:0Z</time></trkpt>
<trkpt lat="-0.056375" lon="311.0"><ele>0</ele><time>305.7-1238330563-2.61T00:0:0Z</time></trkpt>
<trkpt lat="-0.056545" lon="312.2"><ele>0</ele><time>306.2-1238330573-3.32T00:0:0Z</time></trkpt>
<trkpt lat="-0.056724" lon="314.7"><ele>0</ele><time>300.0-1238330583-3.24T00:0:0Z</time></trkpt>
<trkpt lat="-0.056923" lon="317.4"><ele>0</ele><time>287.8-1238330593-3.28T00:0:0Z</time></trkpt>
<trkpt lat="-0.057106" lon="319.3"><ele>0</ele><time>296.6-1238330603-3.22T00:0:0Z</time></trkpt>
<trkpt lat="-0.057229" lon="322.8"><ele>0</ele><time>326.8-1238330614-3.23T00:0:0Z</time></trkpt>
<trkpt lat="-0.057296" lon="324.7"><ele>0</ele><time>340.8-1238330624-3.19T00:0:0Z</time></trkpt>
<trkpt lat="-0.057098" lon="325.6"><ele>0</ele><time>36.9-1238330634-5.19T00:0:0Z</time></trkpt>
<trkpt lat="-0.056428" lon="325.3"><ele>0</ele><time>65.9-1238330644-11.55T00:0:0Z</time></trkpt>
<trkpt lat="-0.056134" lon="324.9"><ele>0</ele><time>72.3-1238330654-4.85T00:0:0Z</time></trkpt>
<trkpt lat="-0.055969" lon="320.1"><ele>0</ele><time>48.1-1238330800-0.24T00:0:0Z</time></trkpt>
<trkpt lat="-0.055555" lon="317.8"><ele>0</ele><time>44.3-1238330810-9.30T00:0:0Z</time></trkpt>
<trkpt lat="-0.055249" lon="314.5"><ele>0</ele><time>22.9-1238330820-12.39T00:0:0Z</time></trkpt>
<trkpt lat="-0.054413" lon="315.6"><ele>0</ele><time>48.5-1238330830-17.55T00:0:0Z</time></trkpt>
<trkpt lat="-0.054042" lon="317.9"><ele>0</ele><time>24.6-1238330841-12.73T00:0:0Z</time></trkpt>
<trkpt lat="-0.053976" lon="316.1"><ele>0</ele><time>4.0-1238330851-14.83T00:0:0Z</time></trkpt>
<trkpt lat="-0.053889" lon="312.0"><ele>0</ele><time>5.1-1238330861-15.50T00:0:0Z</time></trkpt>
<trkpt lat="-0.053534" lon="309.6"><ele>0</ele><time>17.7-1238330871-18.41T00:0:0Z</time></trkpt>
<trkpt lat="-0.052833" lon="311.2"><ele>0</ele><time>59.2-1238330881-12.83T00:0:0Z</time></trkpt>
<trkpt lat="-0.052001" lon="311.9"><ele>0</ele><time>90.2-1238330893-10.90T00:0:0Z</time></trkpt>
<trkpt lat="-0.051462" lon="311.8"><ele>0</ele><time>83.4-1238330903-8.52T00:0:0Z</time></trkpt>
<trkpt lat="-0.051330" lon="312.4"><ele>0</ele><time>28.9-1238330913-4.32T00:0:0Z</time></trkpt>
<trkpt lat="-0.051159" lon="312.4"><ele>0</ele><time>66.4-1238330923-2.92T00:0:0Z</time></trkpt>
<trkpt lat="-0.050972" lon="313.7"><ele>0</ele><time>88.6-1238330956-0.89T00:0:0Z</time></trkpt>
<trkpt lat="-0.050824" lon="313.3"><ele>0</ele><time>131.2-1238330971-2.06T00:0:0Z</time></trkpt>
<trkpt lat="-0.050513" lon="310.5"><ele>0</ele><time>60.2-1238330981-5.65T00:0:0Z</time></trkpt>
<trkpt lat="-0.050162" lon="306.3"><ele>0</ele><time>107.5-1238330991-5.78T00:0:0Z</time></trkpt>
<trkpt lat="-0.049942" lon="303.8"><ele>0</ele><time>119.8-1238331001-3.98T00:0:0Z</time></trkpt>
<trkpt lat="-0.049872" lon="304.0"><ele>0</ele><time>159.0-1238331014-2.38T00:0:0Z</time></trkpt>
<trkpt lat="-0.049801" lon="303.6"><ele>0</ele><time>157.8-1238331027-2.27T00:0:0Z</time></trkpt>
<trkpt lat="-0.049998" lon="304.6"><ele>0</ele><time>230.8-1238331068-0.97T00:0:0Z</time></trkpt>
<trkpt lat="-0.050182" lon="303.0"><ele>0</ele><time>284.2-1238331091-1.30T00:0:0Z</time></trkpt>
<trkpt lat="-0.050352" lon="302.5"><ele>0</ele><time>300.2-1238331109-1.72T00:0:0Z</time></trkpt>
<trkpt lat="-0.050515" lon="302.9"><ele>0</ele><time>307.1-1238331131-1.46T00:0:0Z</time></trkpt>
<trkpt lat="-0.050623" lon="304.7"><ele>0</ele><time>325.1-1238331204-0.40T00:0:0Z</time></trkpt>
<trkpt lat="-0.050899" lon="298.9"><ele>0</ele><time>310.2-1238331238-1.67T00:0:0Z</time></trkpt>
<trkpt lat="-0.051668" lon="300.8"><ele>0</ele><time>314.9-1238331265-6.32T00:0:0Z</time></trkpt>
<trkpt lat="-0.051625" lon="304.6"><ele>0</ele><time>2.8-1238331275-13.58T00:0:0Z</time></trkpt>
<trkpt lat="-0.051300" lon="302.1"><ele>0</ele><time>21.9-1238331285-13.70T00:0:0Z</time></trkpt>
<trkpt lat="-0.050992" lon="303.3"><ele>0</ele><time>25.4-1238331299-8.07T00:0:0Z</time></trkpt>
<trkpt lat="-0.050822" lon="304.7"><ele>0</ele><time>28.0-1238331309-5.69T00:0:0Z</time></trkpt>
<trkpt lat="-0.050711" lon="305.4"><ele>0</ele><time>24.1-1238331319-4.27T00:0:0Z</time></trkpt>
<trkpt lat="-0.050636" lon="306.2"><ele>0</ele><time>21.3-1238331329-3.25T00:0:0Z</time></trkpt>
<trkpt lat="-0.050567" lon="307.3"><ele>0</ele><time>21.4-1238331342-2.27T00:0:0Z</time></trkpt>
<trkpt lat="-0.050457" lon="307.9"><ele>0</ele><time>34.1-1238331352-3.09T00:0:0Z</time></trkpt>
<trkpt lat="-0.050316" lon="308.3"><ele>0</ele><time>25.3-1238331365-4.00T00:0:0Z</time></trkpt>
<trkpt lat="-0.050134" lon="309.5"><ele>0</ele><time>36.2-1238331375-4.84T00:0:0Z</time></trkpt>
<trkpt lat="-0.049979" lon="311.7"><ele>0</ele><time>34.4-1238331385-4.30T00:0:0Z</time></trkpt>
<trkpt lat="-0.049642" lon="313.0"><ele>0</ele><time>36.3-1238331403-4.98T00:0:0Z</time></trkpt>
<trkpt lat="-0.049159" lon="315.6"><ele>0</ele><time>37.8-1238331413-12.39T00:0:0Z</time></trkpt>
<trkpt lat="-0.048981" lon="316.3"><ele>0</ele><time>12.8-1238331423-12.61T00:0:0Z</time></trkpt>
<trkpt lat="-0.048797" lon="316.0"><ele>0</ele><time>29.9-1238331535-0.52T00:0:0Z</time></trkpt>
<trkpt lat="-0.048717" lon="316.7"><ele>0</ele><time>13.7-1238331545-5.33T00:0:0Z</time></trkpt>
<trkpt lat="-0.048568" lon="316.1"><ele>0</ele><time>21.5-1238331555-6.39T00:0:0Z</time></trkpt>
<trkpt lat="-0.048442" lon="316.8"><ele>0</ele><time>24.4-1238331565-4.79T00:0:0Z</time></trkpt>
<trkpt lat="-0.048246" lon="317.1"><ele>0</ele><time>43.9-1238331575-4.44T00:0:0Z</time></trkpt>
<trkpt lat="-0.048083" lon="316.8"><ele>0</ele><time>26.0-1238331585-5.85T00:0:0Z</time></trkpt>
<trkpt lat="-0.047791" lon="316.4"><ele>0</ele><time>39.4-1238331595-7.24T00:0:0Z</time></trkpt>
<trkpt lat="-0.047429" lon="315.8"><ele>0</ele><time>30.2-1238331605-11.31T00:0:0Z</time></trkpt>
<trkpt lat="-0.047123" lon="314.3"><ele>0</ele><time>33.3-1238331615-8.76T00:0:0Z</time></trkpt>
<trkpt lat="-0.046635" lon="310.1"><ele>0</ele><time>58.5-1238331625-9.00T00:0:0Z</time></trkpt>
<trkpt lat="-0.046515" lon="307.6"><ele>0</ele><time>39.9-1238331654-1.01T00:0:0Z</time></trkpt>
<trkpt lat="-0.046777" lon="312.2"><ele>0</ele><time>255.4-1238332225-0.07T00:0:0Z</time></trkpt>
<trkpt lat="-0.046862" lon="311.8"><ele>0</ele><time>203.6-1238332237-2.78T00:0:0Z</time></trkpt>
<trkpt lat="-0.046928" lon="311.9"><ele>0</ele><time>196.9-1238332247-3.60T00:0:0Z</time></trkpt>
<trkpt lat="-0.046972" lon="310.9"><ele>0</ele><time>192.6-1238332257-3.16T00:0:0Z</time></trkpt>
<trkpt lat="-0.047064" lon="310.6"><ele>0</ele><time>203.0-1238332270-2.83T00:0:0Z</time></trkpt>
<trkpt lat="-0.047191" lon="309.7"><ele>0</ele><time>219.9-1238332280-3.12T00:0:0Z</time></trkpt>
<trkpt lat="-0.047296" lon="309.9"><ele>0</ele><time>213.6-1238332290-2.99T00:0:0Z</time></trkpt>
<trkpt lat="-0.047411" lon="310.1"><ele>0</ele><time>209.5-1238332300-3.66T00:0:0Z</time></trkpt>
<trkpt lat="-0.047517" lon="310.2"><ele>0</ele><time>207.5-1238332310-3.62T00:0:0Z</time></trkpt>
<trkpt lat="-0.047657" lon="310.2"><ele>0</ele><time>210.3-1238332320-4.36T00:0:0Z</time></trkpt>
<trkpt lat="-0.047842" lon="309.9"><ele>0</ele><time>214.1-1238332331-4.70T00:0:0Z</time></trkpt>
<trkpt lat="-0.048022" lon="309.5"><ele>0</ele><time>211.9-1238332341-5.37T00:0:0Z</time></trkpt>
<trkpt lat="-0.048214" lon="309.4"><ele>0</ele><time>212.0-1238332351-5.69T00:0:0Z</time></trkpt>
<trkpt lat="-0.048432" lon="307.9"><ele>0</ele><time>215.3-1238332361-5.94T00:0:0Z</time></trkpt>
<trkpt lat="-0.048616" lon="308.2"><ele>0</ele><time>225.8-1238332371-4.03T00:0:0Z</time></trkpt>
<trkpt lat="-0.048775" lon="307.7"><ele>0</ele><time>232.5-1238332391-1.57T00:0:0Z</time></trkpt>
<trkpt lat="-0.049035" lon="313.1"><ele>0</ele><time>301.8-1238332442-0.94T00:0:0Z</time></trkpt>
<trkpt lat="-0.049271" lon="312.1"><ele>0</ele><time>306.4-1238332452-4.60T00:0:0Z</time></trkpt>
<trkpt lat="-0.049481" lon="312.0"><ele>0</ele><time>313.6-1238332462-4.58T00:0:0Z</time></trkpt>
<trkpt lat="-0.049588" lon="312.4"><ele>0</ele><time>337.0-1238332472-4.28T00:0:0Z</time></trkpt>
<trkpt lat="-0.049401" lon="313.0"><ele>0</ele><time>12.3-1238332484-11.44T00:0:0Z</time></trkpt>
<trkpt lat="-0.049471" lon="307.7"><ele>0</ele><time>338.2-1238332515-0.95T00:0:0Z</time></trkpt>
<trkpt lat="-0.049525" lon="310.8"><ele>0</ele><time>345.3-1238332542-1.26T00:0:0Z</time></trkpt>
<trkpt lat="-0.049944" lon="309.1"><ele>0</ele><time>303.8-1238332552-7.92T00:0:0Z</time></trkpt>
<trkpt lat="-0.050323" lon="309.1"><ele>0</ele><time>303.1-1238332562-7.11T00:0:0Z</time></trkpt>
<trkpt lat="-0.050670" lon="308.1"><ele>0</ele><time>248.1-1238332572-5.88T00:0:0Z</time></trkpt>
<trkpt lat="-0.050907" lon="302.7"><ele>0</ele><time>239.3-1238332582-4.34T00:0:0Z</time></trkpt>
<trkpt lat="-0.051080" lon="297.2"><ele>0</ele><time>243.5-1238332608-1.16T00:0:0Z</time></trkpt>
<trkpt lat="-0.050994" lon="310.6"><ele>0</ele><time>25.6-1238332875-0.12T00:0:0Z</time></trkpt>
<trkpt lat="-0.050838" lon="310.9"><ele>0</ele><time>48.3-1238332889-2.34T00:0:0Z</time></trkpt>
<trkpt lat="-0.050707" lon="310.6"><ele>0</ele><time>42.4-1238332904-2.03T00:0:0Z</time></trkpt>
<trkpt lat="-0.050521" lon="309.6"><ele>0</ele><time>91.8-1238332943-0.75T00:0:0Z</time></trkpt>
<trkpt lat="-0.050275" lon="308.9"><ele>0</ele><time>127.6-1238332954-4.43T00:0:0Z</time></trkpt>
<trkpt lat="-0.050097" lon="308.4"><ele>0</ele><time>130.6-1238332964-3.69T00:0:0Z</time></trkpt>
<trkpt lat="-0.049927" lon="307.9"><ele>0</ele><time>119.0-1238332974-3.06T00:0:0Z</time></trkpt>
<trkpt lat="-0.049755" lon="306.9"><ele>0</ele><time>130.5-1238332984-3.55T00:0:0Z</time></trkpt>
<trkpt lat="-0.049688" lon="306.4"><ele>0</ele><time>165.2-1238332994-4.11T00:0:0Z</time></trkpt>
<trkpt lat="-0.049586" lon="306.2"><ele>0</ele><time>162.5-1238333004-5.36T00:0:0Z</time></trkpt>
<trkpt lat="-0.049429" lon="307.9"><ele>0</ele><time>122.5-1238333028-1.22T00:0:0Z</time></trkpt>
<trkpt lat="-0.049332" lon="308.6"><ele>0</ele><time>15.1-1238333041-4.50T00:0:0Z</time></trkpt>
<trkpt lat="-0.049263" lon="309.5"><ele>0</ele><time>15.3-1238333051-4.13T00:0:0Z</time></trkpt>
<trkpt lat="-0.049159" lon="309.7"><ele>0</ele><time>19.0-1238333061-5.00T00:0:0Z</time></trkpt>
<trkpt lat="-0.048956" lon="309.5"><ele>0</ele><time>23.2-1238333071-8.10T00:0:0Z</time></trkpt>
<trkpt lat="-0.048654" lon="309.7"><ele>0</ele><time>29.9-1238333081-9.52T00:0:0Z</time></trkpt>
<trkpt lat="-0.048302" lon="308.9"><ele>0</ele><time>32.6-1238333091-10.25T00:0:0Z</time></trkpt>
<trkpt lat="-0.048042" lon="307.8"><ele>0</ele><time>22.0-1238333101-10.92T00:0:0Z</time></trkpt>
<trkpt lat="-0.047684" lon="306.9"><ele>0</ele><time>30.7-1238333111-11.04T00:0:0Z</time></trkpt>
<trkpt lat="-0.047339" lon="308.4"><ele>0</ele><time>30.5-1238333121-10.70T00:0:0Z</time></trkpt>
<trkpt lat="-0.046997" lon="307.3"><ele>0</ele><time>26.9-1238333131-11.88T00:0:0Z</time></trkpt>
<trkpt lat="-0.046774" lon="307.0"><ele>0</ele><time>23.6-1238333141-8.75T00:0:0Z</time></trkpt>
<trkpt lat="-0.046648" lon="310.6"><ele>0</ele><time>9.7-1238333151-11.86T00:0:0Z</time></trkpt>
<trkpt lat="-0.046508" lon="312.2"><ele>0</ele><time>8.9-1238333161-14.22T00:0:0Z</time></trkpt>
<trkpt lat="-0.046407" lon="311.9"><ele>0</ele><time>9.5-1238333171-9.55T00:0:0Z</time></trkpt>
<trkpt lat="-0.046255" lon="308.9"><ele>0</ele><time>15.3-1238333181-9.06T00:0:0Z</time></trkpt>
<trkpt lat="-0.045849" lon="304.2"><ele>0</ele><time>41.6-1238333191-9.60T00:0:0Z</time></trkpt>
<trkpt lat="-0.045589" lon="298.1"><ele>0</ele><time>79.7-1238333224-1.26T00:0:0Z</time></trkpt>
<trkpt lat="-0.045040" lon="298.0"><ele>0</ele><time>116.9-1238333234-9.66T00:0:0Z</time></trkpt>
<trkpt lat="-0.044653" lon="297.5"><ele>0</ele><time>113.1-1238333244-6.62T00:0:0Z</time></trkpt>
<trkpt lat="-0.044466" lon="294.6"><ele>0</ele><time>116.4-1238333256-2.74T00:0:0Z</time></trkpt>
<trkpt lat="-0.044235" lon="293.0"><ele>0</ele><time>92.4-1238333279-1.58T00:0:0Z</time></trkpt>
<trkpt lat="-0.043457" lon="292.2"><ele>0</ele><time>94.0-1238333289-12.25T00:0:0Z</time></trkpt>
<trkpt lat="-0.042459" lon="291.2"><ele>0</ele><time>100.7-1238333299-15.97T00:0:0Z</time></trkpt>
<trkpt lat="-0.041372" lon="289.9"><ele>0</ele><time>112.9-1238333309-18.54T00:0:0Z</time></trkpt>
<trkpt lat="-0.040004" lon="287.3"><ele>0</ele><time>109.6-1238333319-22.84T00:0:0Z</time></trkpt>
<trkpt lat="-0.038464" lon="285.0"><ele>0</ele><time>99.9-1238333329-24.58T00:0:0Z</time></trkpt>
<trkpt lat="-0.037123" lon="281.9"><ele>0</ele><time>86.2-1238333339-21.13T00:0:0Z</time></trkpt>
<trkpt lat="-0.035716" lon="279.6"><ele>0</ele><time>95.9-1238333349-22.24T00:0:0Z</time></trkpt>
<trkpt lat="-0.034360" lon="277.9"><ele>0</ele><time>106.3-1238333359-22.20T00:0:0Z</time></trkpt>
<trkpt lat="-0.032841" lon="275.6"><ele>0</ele><time>97.7-1238333369-24.11T00:0:0Z</time></trkpt>
<trkpt lat="-0.031482" lon="272.4"><ele>0</ele><time>78.2-1238333379-21.81T00:0:0Z</time></trkpt>
<trkpt lat="-0.030823" lon="269.4"><ele>0</ele><time>30.7-1238333389-20.32T00:0:0Z</time></trkpt>
<trkpt lat="-0.030415" lon="266.8"><ele>0</ele><time>21.4-1238333399-17.63T00:0:0Z</time></trkpt>
<trkpt lat="-0.029986" lon="265.6"><ele>0</ele><time>26.6-1238333409-15.08T00:0:0Z</time></trkpt>
<trkpt lat="-0.029693" lon="264.8"><ele>0</ele><time>21.5-1238333419-12.55T00:0:0Z</time></trkpt>
<trkpt lat="-0.029077" lon="264.1"><ele>0</ele><time>44.5-1238333429-13.81T00:0:0Z</time></trkpt>
<trkpt lat="-0.027923" lon="262.0"><ele>0</ele><time>77.3-1238333439-18.59T00:0:0Z</time></trkpt>
<trkpt lat="-0.027854" lon="260.0"><ele>0</ele><time>172.8-1238333449-8.65T00:0:0Z</time></trkpt>
<trkpt lat="-0.028147" lon="258.7"><ele>0</ele><time>200.0-1238333459-13.45T00:0:0Z</time></trkpt>
<trkpt lat="-0.028326" lon="256.3"><ele>0</ele><time>191.9-1238333469-13.69T00:0:0Z</time></trkpt>
<trkpt lat="-0.028395" lon="252.4"><ele>0</ele><time>184.2-1238333479-14.72T00:0:0Z</time></trkpt>
<trkpt lat="-0.028156" lon="250.1"><ele>0</ele><time>165.3-1238333489-14.82T00:0:0Z</time></trkpt>
<trkpt lat="-0.027941" lon="248.2"><ele>0</ele><time>165.8-1238333499-13.74T00:0:0Z</time></trkpt>
<trkpt lat="-0.027830" lon="247.0"><ele>0</ele><time>173.0-1238333509-14.24T00:0:0Z</time></trkpt>
<trkpt lat="-0.027786" lon="246.3"><ele>0</ele><time>177.2-1238333519-14.20T00:0:0Z</time></trkpt>
<trkpt lat="-0.027849" lon="245.3"><ele>0</ele><time>183.8-1238333529-14.83T00:0:0Z</time></trkpt>
<trkpt lat="-0.027953" lon="244.6"><ele>0</ele><time>186.8-1238333539-13.88T00:0:0Z</time></trkpt>
<trkpt lat="-0.028182" lon="244.0"><ele>0</ele><time>195.7-1238333549-13.31T00:0:0Z</time></trkpt>
<trkpt lat="-0.028383" lon="243.1"><ele>0</ele><time>195.3-1238333559-12.00T00:0:0Z</time></trkpt>
<trkpt lat="-0.028411" lon="241.5"><ele>0</ele><time>182.2-1238333569-11.38T00:0:0Z</time></trkpt>
<trkpt lat="-0.028366" lon="240.4"><ele>0</ele><time>177.0-1238333579-13.22T00:0:0Z</time></trkpt>
<trkpt lat="-0.028304" lon="239.1"><ele>0</ele><time>175.9-1238333589-13.53T00:0:0Z</time></trkpt>
<trkpt lat="-0.028268" lon="238.6"><ele>0</ele><time>177.6-1238333599-13.83T00:0:0Z</time></trkpt>
<trkpt lat="-0.028308" lon="238.6"><ele>0</ele><time>182.6-1238333609-13.88T00:0:0Z</time></trkpt>
<trkpt lat="-0.028421" lon="238.3"><ele>0</ele><time>186.7-1238333619-15.14T00:0:0Z</time></trkpt>
<trkpt lat="-0.028571" lon="237.6"><ele>0</ele><time>189.0-1238333629-15.03T00:0:0Z</time></trkpt>
<trkpt lat="-0.028745" lon="237.5"><ele>0</ele><time>193.6-1238333639-11.62T00:0:0Z</time></trkpt>
<trkpt lat="-0.028826" lon="237.1"><ele>0</ele><time>186.4-1238333649-11.37T00:0:0Z</time></trkpt>
<trkpt lat="-0.028856" lon="236.7"><ele>0</ele><time>182.2-1238333659-12.04T00:0:0Z</time></trkpt>
<trkpt lat="-0.028883" lon="236.8"><ele>0</ele><time>182.0-1238333669-12.62T00:0:0Z</time></trkpt>
<trkpt lat="-0.029075" lon="237.3"><ele>0</ele><time>193.6-1238333679-12.80T00:0:0Z</time></trkpt>
<trkpt lat="-0.029303" lon="237.0"><ele>0</ele><time>195.3-1238333689-13.64T00:0:0Z</time></trkpt>
<trkpt lat="-0.029675" lon="236.7"><ele>0</ele><time>204.1-1238333699-14.36T00:0:0Z</time></trkpt>
<trkpt lat="-0.029884" lon="236.4"><ele>0</ele><time>193.2-1238333709-14.31T00:0:0Z</time></trkpt>
<trkpt lat="-0.030018" lon="236.6"><ele>0</ele><time>189.1-1238333719-13.46T00:0:0Z</time></trkpt>
<trkpt lat="-0.030249" lon="236.0"><ele>0</ele><time>196.1-1238333729-13.08T00:0:0Z</time></trkpt>
<trkpt lat="-0.030408" lon="235.6"><ele>0</ele><time>193.3-1238333739-10.83T00:0:0Z</time></trkpt>
<trkpt lat="-0.030604" lon="235.8"><ele>0</ele><time>196.1-1238333749-11.18T00:0:0Z</time></trkpt>
<trkpt lat="-0.030878" lon="235.6"><ele>0</ele><time>201.9-1238333759-11.56T00:0:0Z</time></trkpt>
<trkpt lat="-0.031201" lon="235.5"><ele>0</ele><time>206.3-1238333769-11.43T00:0:0Z</time></trkpt>
<trkpt lat="-0.031570" lon="235.2"><ele>0</ele><time>208.3-1238333779-12.25T00:0:0Z</time></trkpt>
<trkpt lat="-0.031813" lon="234.7"><ele>0</ele><time>199.6-1238333789-11.39T00:0:0Z</time></trkpt>
<trkpt lat="-0.031049" lon="234.4"><ele>0</ele><time>90.3-1238333799-12.02T00:0:0Z</time></trkpt>
<trkpt lat="-0.029961" lon="232.9"><ele>0</ele><time>90.0-1238333809-17.10T00:0:0Z</time></trkpt>
<trkpt lat="-0.028859" lon="232.9"><ele>0</ele><time>91.3-1238333819-17.34T00:0:0Z</time></trkpt>
<trkpt lat="-0.027776" lon="232.5"><ele>0</ele><time>93.3-1238333829-17.06T00:0:0Z</time></trkpt>
<trkpt lat="-0.026653" lon="232.8"><ele>0</ele><time>101.6-1238333839-18.03T00:0:0Z</time></trkpt>
<trkpt lat="-0.025483" lon="232.0"><ele>0</ele><time>105.1-1238333849-19.05T00:0:0Z</time></trkpt>
<trkpt lat="-0.024313" lon="230.6"><ele>0</ele><time>90.9-1238333859-18.40T00:0:0Z</time></trkpt>
<trkpt lat="-0.023356" lon="230.1"><ele>0</ele><time>96.5-1238333869-15.15T00:0:0Z</time></trkpt>
<trkpt lat="-0.022764" lon="229.3"><ele>0</ele><time>136.8-1238333879-13.60T00:0:0Z</time></trkpt>
<trkpt lat="-0.022056" lon="228.4"><ele>0</ele><time>120.5-1238333889-12.91T00:0:0Z</time></trkpt>
<trkpt lat="-0.021553" lon="228.3"><ele>0</ele><time>114.3-1238333899-8.68T00:0:0Z</time></trkpt>
<trkpt lat="-0.021255" lon="227.7"><ele>0</ele><time>114.5-1238333909-5.15T00:0:0Z</time></trkpt>
<trkpt lat="-0.021037" lon="226.9"><ele>0</ele><time>133.7-1238333919-4.75T00:0:0Z</time></trkpt>
<trkpt lat="-0.020801" lon="226.2"><ele>0</ele><time>136.5-1238333929-5.37T00:0:0Z</time></trkpt>
<trkpt lat="-0.020573" lon="225.6"><ele>0</ele><time>122.5-1238333939-4.27T00:0:0Z</time></trkpt>
<trkpt lat="-0.020376" lon="226.9"><ele>0</ele><time>87.6-1238333951-2.58T00:0:0Z</time></trkpt>
<trkpt lat="-0.020184" lon="226.9"><ele>0</ele><time>64.0-1238333961-3.36T00:0:0Z</time></trkpt>
<trkpt lat="-0.019974" lon="226.5"><ele>0</ele><time>67.6-1238333971-3.57T00:0:0Z</time></trkpt>
<trkpt lat="-0.019836" lon="226.3"><ele>0</ele><time>40.2-1238333982-3.04T00:0:0Z</time></trkpt>
<trkpt lat="-0.019723" lon="225.6"><ele>0</ele><time>37.6-1238333996-2.08T00:0:0Z</time></trkpt>
<trkpt lat="-0.019630" lon="244.0"><ele>0</ele><time>30.2-1238334565-0.05T00:0:0Z</time></trkpt>
<trkpt lat="-0.019726" lon="245.7"><ele>0</ele><time>199.9-1238334653-0.50T00:0:0Z</time></trkpt>
<trkpt lat="-0.019616" lon="244.2"><ele>0</ele><time>145.7-1238334670-1.81T00:0:0Z</time></trkpt>
<trkpt lat="-0.019424" lon="242.6"><ele>0</ele><time>74.1-1238334681-2.84T00:0:0Z</time></trkpt>
<trkpt lat="-0.019236" lon="241.5"><ele>0</ele><time>72.6-1238334691-3.10T00:0:0Z</time></trkpt>
<trkpt lat="-0.018976" lon="241.6"><ele>0</ele><time>80.5-1238334702-3.78T00:0:0Z</time></trkpt>
<trkpt lat="-0.018788" lon="242.1"><ele>0</ele><time>84.9-1238334712-2.96T00:0:0Z</time></trkpt>
<trkpt lat="-0.018584" lon="242.5"><ele>0</ele><time>83.2-1238334723-2.94T00:0:0Z</time></trkpt>
<trkpt lat="-0.018384" lon="243.0"><ele>0</ele><time>88.0-1238334735-2.62T00:0:0Z</time></trkpt>
<trkpt lat="-0.018198" lon="243.3"><ele>0</ele><time>80.9-1238334746-2.70T00:0:0Z</time></trkpt>
<trkpt lat="-0.017963" lon="242.7"><ele>0</ele><time>78.6-1238334756-3.77T00:0:0Z</time></trkpt>
<trkpt lat="-0.017746" lon="244.7"><ele>0</ele><time>75.1-1238334766-3.53T00:0:0Z</time></trkpt>
<trkpt lat="-0.017568" lon="246.9"><ele>0</ele><time>58.1-1238334776-3.30T00:0:0Z</time></trkpt>
<trkpt lat="-0.017411" lon="249.2"><ele>0</ele><time>54.2-1238334786-3.03T00:0:0Z</time></trkpt>
<trkpt lat="-0.017262" lon="250.3"><ele>0</ele><time>50.1-1238334796-3.06T00:0:0Z</time></trkpt>
<trkpt lat="-0.017101" lon="253.1"><ele>0</ele><time>41.9-1238334807-3.46T00:0:0Z</time></trkpt>
<trkpt lat="-0.016919" lon="253.9"><ele>0</ele><time>45.0-1238334818-3.66T00:0:0Z</time></trkpt>
<trkpt lat="-0.016803" lon="255.8"><ele>0</ele><time>38.7-1238334828-2.94T00:0:0Z</time></trkpt>
<trkpt lat="-0.016700" lon="257.8"><ele>0</ele><time>32.0-1238334839-2.78T00:0:0Z</time></trkpt>
<trkpt lat="-0.016571" lon="260.4"><ele>0</ele><time>38.9-1238334849-3.22T00:0:0Z</time></trkpt>
<trkpt lat="-0.016435" lon="262.0"><ele>0</ele><time>43.3-1238334859-3.13T00:0:0Z</time></trkpt>
<trkpt lat="-0.016317" lon="263.1"><ele>0</ele><time>36.9-1238334871-2.57T00:0:0Z</time></trkpt>
<trkpt lat="-0.016183" lon="263.8"><ele>0</ele><time>43.5-1238334883-2.55T00:0:0Z</time></trkpt>
<trkpt lat="-0.016099" lon="264.0"><ele>0</ele><time>25.9-1238334894-2.76T00:0:0Z</time></trkpt>
<trkpt lat="-0.016034" lon="265.3"><ele>0</ele><time>18.4-1238334906-2.67T00:0:0Z</time></trkpt>
<trkpt lat="-0.015926" lon="265.6"><ele>0</ele><time>31.3-1238334916-3.29T00:0:0Z</time></trkpt>
<trkpt lat="-0.015813" lon="266.5"><ele>0</ele><time>29.4-1238334926-3.60T00:0:0Z</time></trkpt>
<trkpt lat="-0.015683" lon="267.9"><ele>0</ele><time>39.1-1238334936-3.24T00:0:0Z</time></trkpt>
<trkpt lat="-0.015531" lon="269.1"><ele>0</ele><time>55.5-1238334946-2.92T00:0:0Z</time></trkpt>
<trkpt lat="-0.015359" lon="271.0"><ele>0</ele><time>56.9-1238334957-2.93T00:0:0Z</time></trkpt>
<trkpt lat="-0.015166" lon="272.2"><ele>0</ele><time>66.3-1238334968-3.02T00:0:0Z</time></trkpt>
<trkpt lat="-0.014985" lon="275.7"><ele>0</ele><time>53.6-1238334978-3.53T00:0:0Z</time></trkpt>
<trkpt lat="-0.014838" lon="278.2"><ele>0</ele><time>47.0-1238334989-2.87T00:0:0Z</time></trkpt>
<trkpt lat="-0.014718" lon="280.4"><ele>0</ele><time>37.9-1238334999-3.07T00:0:0Z</time></trkpt>
<trkpt lat="-0.014603" lon="282.2"><ele>0</ele><time>34.8-1238335009-3.18T00:0:0Z</time></trkpt>
<trkpt lat="-0.014464" lon="284.2"><ele>0</ele><time>38.4-1238335019-3.51T00:0:0Z</time></trkpt>
<trkpt lat="-0.014314" lon="285.9"><ele>0</ele><time>46.3-1238335029-3.27T00:0:0Z</time></trkpt>
<trkpt lat="-0.014122" lon="287.5"><ele>0</ele><time>41.8-1238335039-4.52T00:0:0Z</time></trkpt>
<trkpt lat="-0.013965" lon="288.5"><ele>0</ele><time>36.8-1238335049-4.14T00:0:0Z</time></trkpt>
<trkpt lat="-0.013755" lon="289.8"><ele>0</ele><time>49.3-1238335059-4.36T00:0:0Z</time></trkpt>
<trkpt lat="-0.013583" lon="292.0"><ele>0</ele><time>46.7-1238335069-3.70T00:0:0Z</time></trkpt>
<trkpt lat="-0.013386" lon="294.5"><ele>0</ele><time>57.2-1238335079-3.70T00:0:0Z</time></trkpt>
<trkpt lat="-0.013174" lon="296.8"><ele>0</ele><time>63.6-1238335089-3.71T00:0:0Z</time></trkpt>
<trkpt lat="-0.012954" lon="297.7"><ele>0</ele><time>80.4-1238335099-3.52T00:0:0Z</time></trkpt>
<trkpt lat="-0.012718" lon="299.5"><ele>0</ele><time>96.2-1238335109-3.73T00:0:0Z</time></trkpt>
<trkpt lat="-0.012482" lon="302.0"><ele>0</ele><time>92.8-1238335119-3.72T00:0:0Z</time></trkpt>
<trkpt lat="-0.012270" lon="303.9"><ele>0</ele><time>93.2-1238335129-3.34T00:0:0Z</time></trkpt>
<trkpt lat="-0.012035" lon="305.7"><ele>0</ele><time>105.6-1238335139-3.82T00:0:0Z</time></trkpt>
<trkpt lat="-0.011802" lon="308.7"><ele>0</ele><time>101.4-1238335149-3.75T00:0:0Z</time></trkpt>
<trkpt lat="-0.011547" lon="312.6"><ele>0</ele><time>112.1-1238335160-3.94T00:0:0Z</time></trkpt>
<trkpt lat="-0.011296" lon="314.3"><ele>0</ele><time>110.0-1238335170-4.20T00:0:0Z</time></trkpt>
<trkpt lat="-0.010985" lon="317.2"><ele>0</ele><time>106.7-1238335180-5.11T00:0:0Z</time></trkpt>
<trkpt lat="-0.010580" lon="319.3"><ele>0</ele><time>98.7-1238335190-6.44T00:0:0Z</time></trkpt>
<trkpt lat="-0.010012" lon="321.2"><ele>0</ele><time>83.3-1238335200-8.98T00:0:0Z</time></trkpt>
<trkpt lat="-0.008933" lon="320.9"><ele>0</ele><time>91.7-1238335210-16.98T00:0:0Z</time></trkpt>
<trkpt lat="-0.007733" lon="320.5"><ele>0</ele><time>90.1-1238335220-18.87T00:0:0Z</time></trkpt>
<trkpt lat="-0.007057" lon="322.1"><ele>0</ele><time>84.9-1238335230-10.66T00:0:0Z</time></trkpt>
<trkpt lat="-0.006399" lon="318.9"><ele>0</ele><time>99.1-1238335240-10.48T00:0:0Z</time></trkpt>
<trkpt lat="-0.006194" lon="322.3"><ele>0</ele><time>142.0-1238335251-4.77T00:0:0Z</time></trkpt>
<trkpt lat="-0.006406" lon="322.1"><ele>0</ele><time>255.6-1238335262-3.12T00:0:0Z</time></trkpt>
<trkpt lat="-0.006516" lon="321.2"><ele>0</ele><time>209.8-1238335460-0.18T00:0:0Z</time></trkpt>
<trkpt lat="-0.006676" lon="321.0"><ele>0</ele><time>239.8-1238335490-0.97T00:0:0Z</time></trkpt>
<trkpt lat="-0.006547" lon="322.5"><ele>0</ele><time>44.2-1238335529-0.75T00:0:0Z</time></trkpt>
<trkpt lat="-0.006444" lon="329.3"><ele>0</ele><time>33.6-1238335827-0.10T00:0:0Z</time></trkpt>
<trkpt lat="-0.006493" lon="325.7"><ele>0</ele><time>194.5-1238335884-0.53T00:0:0Z</time></trkpt>
<trkpt lat="-0.006546" lon="323.0"><ele>0</ele><time>195.6-1238335924-0.77T00:0:0Z</time></trkpt>
<trkpt lat="-0.006553" lon="321.4"><ele>0</ele><time>357.8-1238336771-0.04T00:0:0Z</time></trkpt>
<trkpt lat="-0.006532" lon="323.7"><ele>0</ele><time>6.4-1238336794-1.28T00:0:0Z</time></trkpt>
<trkpt lat="-0.006470" lon="322.2"><ele>0</ele><time>161.7-1238336918-0.25T00:0:0Z</time></trkpt>
<trkpt lat="-0.006649" lon="317.9"><ele>0</ele><time>253.3-1238336950-0.91T00:0:0Z</time></trkpt>
<trkpt lat="-0.006474" lon="316.3"><ele>0</ele><time>53.7-1238336980-1.14T00:0:0Z</time></trkpt>
</trkseg></trk></gpx>